createdAt,value
2022-08-02T00:00:09.551Z,14.60
2022-08-02T00:02:36.290Z,14.54
2022-08-02T00:05:02.902Z,14.64
2022-08-02T00:07:29.406Z,14.51
2022-08-02T00:09:55.916Z,14.26
2022-08-02T00:12:22.617Z,13.95
2022-08-02T00:14:49.145Z,13.93
2022-08-02T00:17:15.663Z,13.86
2022-08-02T00:19:42.174Z,13.77
2022-08-02T00:22:09.142Z,13.69
2022-08-02T00:24:35.931Z,13.65
2022-08-02T00:27:09.517Z,13.64
2022-08-02T00:29:50.406Z,13.58
2022-08-02T00:32:20.298Z,13.54
2022-08-02T00:34:46.811Z,13.66
2022-08-02T00:37:13.482Z,13.80
2022-08-02T00:39:40.002Z,13.85
2022-08-02T00:42:06.655Z,13.85
2022-08-02T00:44:33.160Z,13.74
2022-08-02T00:47:00.057Z,13.66
2022-08-02T00:49:26.753Z,13.69
2022-08-02T00:51:53.328Z,13.66
2022-08-02T00:54:20.620Z,13.83
2022-08-02T00:56:49.822Z,13.95
2022-08-02T00:59:17.565Z,14.14
2022-08-02T01:01:56.279Z,14.24
2022-08-02T01:04:30.635Z,14.31
2022-08-02T01:06:58.408Z,14.16
2022-08-02T01:09:25.438Z,14.04
2022-08-02T01:11:51.963Z,13.92
2022-08-02T01:14:18.578Z,13.89
2022-08-02T01:16:58.326Z,13.89
2022-08-02T01:19:33.080Z,13.82
2022-08-02T01:22:20.995Z,13.67
2022-08-02T01:24:53.851Z,13.45
2022-08-02T01:28:01.703Z,13.38
2022-08-02T01:30:28.309Z,13.30
2022-08-02T01:32:57.737Z,13.23
2022-08-02T01:35:50.543Z,13.13
2022-08-02T01:38:22.261Z,13.09
2022-08-02T01:40:48.762Z,12.98
2022-08-02T01:43:15.269Z,13.16
2022-08-02T01:45:41.806Z,13.16
2022-08-02T01:48:08.312Z,13.09
2022-08-02T01:50:35.442Z,13.05
2022-08-02T01:53:05.684Z,13.03
2022-08-02T01:55:35.328Z,13.09
2022-08-02T01:58:19.974Z,13.15
2022-08-02T02:00:47.113Z,13.23
2022-08-02T02:03:14.786Z,13.10
2022-08-02T02:05:41.312Z,13.09
2022-08-02T02:08:08.277Z,13.02
2022-08-02T02:10:38.573Z,13.11
2022-08-02T02:13:07.885Z,13.03
2022-08-02T02:15:34.648Z,13.09
2022-08-02T02:18:12.987Z,13.09
2022-08-02T02:20:40.832Z,12.99
2022-08-02T02:23:07.315Z,13.21
2022-08-02T02:25:36.490Z,13.28
2022-08-02T02:28:12.328Z,13.26
2022-08-02T02:30:40.232Z,13.31
2022-08-02T02:33:07.109Z,13.28
2022-08-02T02:35:36.809Z,13.26
2022-08-02T02:38:06.481Z,13.22
2022-08-02T02:40:33.185Z,13.20
2022-08-02T02:43:00.083Z,13.23
2022-08-02T02:45:26.865Z,13.27
2022-08-02T02:47:53.774Z,13.36
2022-08-02T02:50:21.643Z,13.38
2022-08-02T02:52:48.413Z,13.41
2022-08-02T02:55:14.937Z,13.34
2022-08-02T02:57:41.472Z,13.35
2022-08-02T03:00:12.402Z,13.33
2022-08-02T03:02:39.380Z,13.28
2022-08-02T03:05:09.443Z,13.21
2022-08-02T03:07:36.012Z,13.22
2022-08-02T03:10:06.551Z,13.19
2022-08-02T03:12:33.860Z,13.18
2022-08-02T03:15:01.512Z,13.13
2022-08-02T03:17:38.689Z,13.13
2022-08-02T03:20:11.371Z,13.14
2022-08-02T03:22:37.873Z,13.07
2022-08-02T03:25:04.637Z,13.10
2022-08-02T03:27:31.136Z,13.17
2022-08-02T03:29:57.624Z,13.24
2022-08-02T03:32:24.129Z,13.15
2022-08-02T03:34:50.638Z,13.24
2022-08-02T03:37:17.132Z,13.25
2022-08-02T03:39:53.165Z,13.23
2022-08-02T03:42:20.875Z,13.27
2022-08-02T03:44:48.201Z,13.29
2022-08-02T03:47:14.759Z,13.32
2022-08-02T03:49:41.578Z,13.28
2022-08-02T03:52:08.334Z,13.39
2022-08-02T03:54:45.272Z,13.59
2022-08-02T03:57:12.550Z,13.82
2022-08-02T03:59:45.561Z,14.01
2022-08-02T04:02:12.789Z,14.14
2022-08-02T04:04:39.787Z,14.45
2022-08-02T04:07:07.583Z,14.52
2022-08-02T04:09:34.283Z,14.45
2022-08-02T04:12:00.782Z,14.53
2022-08-02T04:14:27.302Z,14.55
2022-08-02T04:17:02.044Z,14.62
2022-08-02T04:19:32.764Z,14.58
2022-08-02T04:22:00.245Z,14.64
2022-08-02T04:24:32.280Z,14.65
2022-08-02T04:27:06.670Z,14.63
2022-08-02T04:29:47.077Z,14.66
2022-08-02T04:32:14.360Z,14.68
2022-08-02T04:34:44.860Z,14.62
2022-08-02T04:37:16.983Z,14.62
2022-08-02T04:39:43.705Z,14.59
2022-08-02T04:42:10.424Z,14.65
2022-08-02T04:44:37.108Z,14.81
2022-08-02T04:47:06.849Z,15.04
2022-08-02T04:49:33.626Z,15.14
2022-08-02T04:52:01.027Z,15.20
2022-08-02T04:54:27.628Z,15.20
2022-08-02T04:56:54.140Z,15.32
2022-08-02T04:59:20.830Z,15.47
2022-08-02T05:01:47.366Z,15.73
2022-08-02T05:04:13.910Z,15.98
2022-08-02T05:06:40.444Z,16.08
2022-08-02T05:09:06.951Z,16.05
2022-08-02T05:11:34.711Z,15.99
2022-08-02T05:14:04.262Z,16.00
2022-08-02T05:16:31.881Z,16.06
2022-08-02T05:19:02.012Z,16.16
2022-08-02T05:21:29.107Z,16.17
2022-08-02T05:23:55.661Z,16.01
2022-08-02T05:26:22.212Z,16.01
2022-08-02T05:28:48.808Z,16.05
2022-08-02T05:31:15.345Z,16.16
2022-08-02T05:33:41.855Z,16.13
2022-08-02T05:36:09.504Z,16.43
2022-08-02T05:38:37.424Z,16.52
2022-08-02T05:41:07.159Z,16.45
2022-08-02T05:43:33.667Z,16.52
2022-08-02T05:46:00.216Z,16.67
2022-08-02T05:48:31.489Z,16.80
2022-08-02T05:51:12.289Z,17.09
2022-08-02T05:53:41.630Z,17.31
2022-08-02T05:56:35.794Z,17.33
2022-08-02T05:59:08.952Z,17.56
2022-08-02T06:01:38.109Z,17.52
2022-08-02T06:04:11.618Z,17.28
2022-08-02T06:06:38.242Z,17.50
2022-08-02T06:09:09.286Z,17.79
2022-08-02T06:11:37.451Z,18.02
2022-08-02T06:14:07.446Z,18.15
2022-08-02T06:16:42.193Z,18.22
2022-08-02T06:19:09.609Z,18.31
2022-08-02T06:22:32.484Z,18.26
2022-08-02T06:24:22.764Z,18.45
2022-08-02T06:26:52.685Z,18.26
2022-08-02T06:29:19.248Z,18.22
2022-08-02T06:31:46.050Z,18.29
2022-08-02T06:34:12.550Z,18.64
2022-08-02T06:36:58.885Z,18.54
2022-08-02T06:39:30.883Z,18.69
2022-08-02T06:41:59.804Z,18.73
2022-08-02T06:47:13.794Z,18.86
2022-08-02T06:49:52.326Z,18.98
2022-08-02T06:52:28.936Z,19.09
2022-08-02T06:54:57.225Z,19.02
2022-08-02T06:57:23.771Z,19.29
2022-08-02T06:59:50.285Z,19.30
2022-08-02T07:02:16.802Z,19.20
2022-08-02T07:04:43.311Z,19.15
2022-08-02T07:07:09.839Z,19.27
2022-08-02T07:09:36.336Z,19.31
2022-08-02T07:12:02.908Z,19.38
2022-08-02T07:14:29.416Z,18.67
2022-08-02T07:16:55.947Z,18.89
2022-08-02T07:19:28.594Z,19.11
2022-08-02T07:22:04.262Z,19.18
2022-08-02T07:24:30.849Z,19.30
2022-08-02T07:27:13.725Z,19.25
2022-08-02T07:29:46.601Z,19.56
2022-08-02T07:32:24.611Z,19.60
2022-08-02T07:34:53.442Z,19.59
2022-08-02T07:37:54.267Z,19.84
2022-08-02T07:40:14.017Z,19.45
2022-08-02T07:42:42.833Z,19.42
2022-08-02T07:45:09.784Z,19.55
2022-08-02T07:47:38.104Z,20.11
2022-08-02T07:50:05.369Z,20.28
2022-08-02T07:52:31.896Z,20.48
2022-08-02T07:54:58.447Z,20.78
2022-08-02T07:57:25.181Z,21.02
2022-08-02T07:59:51.872Z,21.08
2022-08-02T08:02:18.357Z,21.01
2022-08-02T08:04:44.868Z,21.18
2022-08-02T08:07:11.880Z,21.39
2022-08-02T08:09:41.717Z,21.60
2022-08-02T08:12:09.362Z,21.32
2022-08-02T08:14:36.302Z,20.87
2022-08-02T08:17:03.482Z,21.37
2022-08-02T08:19:50.278Z,21.59
2022-08-02T08:22:16.466Z,21.74
2022-08-02T08:24:42.985Z,21.61
2022-08-02T08:27:14.434Z,21.22
2022-08-02T08:29:42.436Z,21.40
2022-08-02T08:32:14.181Z,21.48
2022-08-02T08:34:43.099Z,21.21
2022-08-02T08:37:09.631Z,21.41
2022-08-02T08:39:57.177Z,21.84
2022-08-02T08:42:29.149Z,22.06
2022-08-02T08:44:56.585Z,21.96
2022-08-02T08:47:23.922Z,21.63
2022-08-02T08:49:53.363Z,21.99
2022-08-02T08:52:20.244Z,22.05
2022-08-02T08:54:48.442Z,22.11
2022-08-02T08:57:15.218Z,22.22
2022-08-02T08:59:42.669Z,22.23
2022-08-02T09:02:17.834Z,22.03
2022-08-02T09:04:54.722Z,22.02
2022-08-02T09:07:21.779Z,22.13
2022-08-02T09:09:48.294Z,22.36
2022-08-02T09:12:19.538Z,22.34
2022-08-02T09:14:46.605Z,22.36
2022-08-02T09:17:17.128Z,22.86
2022-08-02T09:19:45.651Z,23.09
2022-08-02T09:22:13.399Z,23.21
2022-08-02T09:24:48.023Z,22.72
2022-08-02T09:27:18.970Z,23.08
2022-08-02T09:30:11.442Z,22.96
2022-08-02T09:32:40.459Z,23.39
2022-08-02T09:35:07.594Z,23.51
2022-08-02T09:37:34.121Z,23.64
2022-08-02T09:40:02.727Z,23.67
2022-08-02T09:42:30.810Z,23.51
2022-08-02T09:44:59.237Z,23.32
2022-08-02T09:47:26.259Z,23.75
2022-08-02T09:49:56.415Z,24.02
2022-08-02T09:52:37.176Z,23.92
2022-08-02T09:55:11.309Z,24.33
2022-08-02T09:57:40.775Z,24.28
2022-08-02T10:00:14.851Z,24.43
2022-08-02T10:03:11.114Z,24.57
2022-08-02T10:05:56.316Z,24.49
2022-08-02T10:08:29.305Z,24.63
2022-08-02T10:11:02.163Z,24.73
2022-08-02T10:13:33.588Z,24.42
2022-08-02T10:16:00.182Z,23.76
2022-08-02T10:18:38.950Z,24.66
2022-08-02T10:21:07.711Z,25.14
2022-08-02T10:23:34.415Z,25.15
2022-08-02T10:26:01.042Z,25.09
2022-08-02T10:28:33.357Z,25.04
2022-08-02T10:31:01.178Z,24.74
2022-08-02T10:33:31.278Z,25.45
2022-08-02T10:36:04.227Z,25.58
2022-08-02T10:38:34.079Z,25.11
2022-08-02T10:41:00.891Z,24.97
2022-08-02T10:43:36.562Z,25.43
2022-08-02T10:46:24.123Z,26.14
2022-08-02T10:49:37.995Z,25.66
2022-08-02T10:52:02.916Z,25.87
2022-08-02T10:54:39.380Z,26.29
2022-08-02T10:57:23.131Z,26.21
2022-08-02T10:59:51.346Z,26.28
2022-08-02T11:02:38.005Z,25.99
2022-08-02T11:05:12.478Z,25.70
2022-08-02T11:07:41.423Z,26.26
2022-08-02T11:10:25.978Z,26.45
2022-08-02T11:13:11.380Z,26.36
2022-08-02T11:16:01.963Z,26.40
2022-08-02T11:18:46.646Z,26.12
2022-08-02T11:21:26.420Z,26.68
2022-08-02T11:23:52.982Z,27.29
2022-08-02T11:26:31.597Z,27.10
2022-08-02T11:28:59.035Z,26.50
2022-08-02T11:31:25.544Z,26.79
2022-08-02T11:33:52.208Z,27.12
2022-08-02T11:36:18.698Z,27.37
2022-08-02T11:38:45.397Z,27.20
2022-08-02T11:41:46.622Z,27.62
2022-08-02T11:44:08.257Z,26.90
2022-08-02T11:46:34.873Z,27.06
2022-08-02T11:49:15.507Z,27.33
2022-08-02T11:52:02.083Z,27.51
2022-08-02T11:54:30.372Z,26.16
2022-08-02T11:57:19.898Z,26.10
2022-08-02T11:59:49.362Z,26.44
2022-08-02T12:02:16.014Z,27.44
2022-08-02T12:04:42.629Z,27.87
2022-08-02T12:07:10.683Z,27.95
2022-08-02T12:09:41.028Z,28.21
2022-08-02T12:12:07.916Z,27.97
2022-08-02T12:14:34.813Z,26.84
2022-08-02T12:17:19.883Z,26.41
2022-08-02T12:19:47.886Z,26.68
2022-08-02T12:22:18.424Z,26.75
2022-08-02T12:24:49.445Z,27.24
2022-08-02T12:27:36.315Z,27.68
2022-08-02T12:30:09.087Z,27.69
2022-08-02T12:32:36.099Z,27.74
2022-08-02T12:35:07.038Z,27.80
2022-08-02T12:37:33.570Z,28.01
2022-08-02T12:40:24.847Z,27.35
2022-08-02T12:42:54.751Z,26.79
2022-08-02T12:45:21.276Z,27.16
2022-08-02T12:47:49.516Z,26.97
2022-08-02T12:50:32.542Z,26.54
2022-08-02T12:53:12.240Z,26.15
2022-08-02T12:56:01.579Z,26.39
2022-08-02T12:58:30.948Z,27.20
2022-08-02T13:00:59.039Z,27.84
2022-08-02T13:04:09.606Z,27.58
2022-08-02T13:06:39.546Z,27.75
2022-08-02T13:08:58.664Z,27.20
2022-08-02T13:11:25.254Z,27.47
2022-08-02T13:13:51.816Z,27.78
2022-08-02T13:16:18.318Z,27.30
2022-08-02T13:18:57.481Z,27.35
2022-08-02T13:21:40.926Z,27.64
2022-08-02T13:24:33.201Z,27.77
2022-08-02T13:26:57.762Z,27.51
2022-08-02T13:29:25.750Z,27.14
2022-08-02T13:31:52.321Z,27.21
2022-08-02T13:34:18.863Z,27.14
2022-08-02T13:36:45.375Z,26.98
2022-08-02T13:39:12.691Z,26.91
2022-08-02T13:41:39.218Z,26.75
2022-08-02T13:44:10.226Z,26.95
2022-08-02T13:46:39.751Z,27.43
2022-08-02T13:49:17.811Z,27.41
2022-08-02T13:51:45.479Z,26.98
2022-08-02T13:54:11.993Z,27.61
2022-08-02T13:56:38.488Z,27.32
2022-08-02T13:59:54.109Z,27.24
2022-08-02T14:01:52.112Z,27.40
2022-08-02T14:04:18.708Z,27.72
2022-08-02T14:06:45.200Z,27.53
2022-08-02T14:09:15.781Z,27.35
2022-08-02T14:11:43.933Z,26.83
2022-08-02T14:14:16.531Z,27.02
2022-08-02T14:16:45.089Z,27.30
2022-08-02T14:19:16.813Z,27.53
2022-08-02T14:21:45.930Z,28.01
2022-08-02T14:24:14.957Z,27.73
2022-08-02T14:26:41.461Z,28.37
2022-08-02T14:29:07.967Z,28.64
2022-08-02T14:31:34.474Z,28.12
2022-08-02T14:34:01.022Z,27.99
2022-08-02T14:36:28.175Z,27.58
2022-08-02T14:38:55.399Z,27.26
2022-08-02T14:41:22.019Z,27.80
2022-08-02T14:44:09.963Z,27.68
2022-08-02T14:46:38.465Z,27.69
2022-08-02T14:49:05.332Z,26.79
2022-08-02T14:51:32.031Z,26.72
2022-08-02T14:54:03.140Z,27.30
2022-08-02T14:56:30.063Z,27.99
2022-08-02T14:58:56.629Z,27.51
2022-08-02T15:01:25.859Z,27.86
2022-08-02T15:03:52.804Z,27.75
2022-08-02T15:06:19.425Z,27.96
2022-08-02T15:08:45.932Z,28.01
2022-08-02T15:11:12.456Z,27.92
2022-08-02T15:13:42.482Z,28.04
2022-08-02T15:16:09.392Z,28.06
2022-08-02T15:18:35.893Z,27.99
2022-08-02T15:21:13.433Z,27.64
2022-08-02T15:23:48.969Z,27.79
2022-08-02T15:26:15.507Z,27.76
2022-08-02T15:28:41.999Z,27.50
2022-08-02T15:31:08.534Z,27.34
2022-08-02T15:33:35.034Z,27.10
2022-08-02T15:36:01.610Z,27.04
2022-08-02T15:38:28.249Z,27.07
2022-08-02T15:40:54.770Z,26.69
2022-08-02T15:43:21.579Z,26.77
2022-08-02T15:45:48.102Z,26.83
2022-08-02T15:48:14.674Z,26.66
2022-08-02T15:50:41.210Z,26.44
2022-08-02T15:53:07.710Z,26.53
2022-08-02T15:55:52.653Z,26.56
2022-08-02T15:58:22.499Z,26.51
2022-08-02T16:00:49.432Z,26.58
2022-08-02T16:03:15.934Z,26.82
2022-08-02T16:05:42.507Z,26.37
2022-08-02T16:08:09.010Z,26.50
2022-08-02T16:10:35.555Z,26.52
2022-08-02T16:13:20.631Z,26.51
2022-08-02T16:15:47.142Z,26.25
2022-08-02T16:18:13.687Z,26.29
2022-08-02T16:20:40.393Z,26.18
2022-08-02T16:23:06.892Z,25.97
2022-08-02T16:25:33.420Z,25.97
2022-08-02T16:28:07.000Z,26.12
2022-08-02T16:30:34.497Z,25.97
2022-08-02T16:33:01.094Z,26.10
2022-08-02T16:35:28.283Z,25.51
2022-08-02T16:37:54.880Z,25.43
2022-08-02T16:40:21.988Z,25.52
2022-08-02T16:42:50.241Z,25.52
2022-08-02T16:45:21.269Z,25.41
2022-08-02T16:47:55.202Z,24.65
2022-08-02T16:50:27.257Z,24.78
2022-08-02T16:52:53.993Z,24.95
2022-08-02T16:55:22.021Z,24.46
2022-08-02T16:57:50.125Z,24.59
2022-08-02T17:00:17.255Z,24.18
2022-08-02T17:02:44.144Z,24.43
2022-08-02T17:05:14.611Z,24.77
2022-08-02T17:08:07.264Z,24.37
2022-08-02T17:10:29.253Z,24.32
2022-08-02T17:13:11.067Z,23.94
2022-08-02T17:16:08.352Z,23.58
2022-08-02T17:18:26.351Z,23.78
2022-08-02T17:21:12.002Z,23.89
2022-08-02T17:24:02.711Z,23.49
2022-08-02T17:26:25.052Z,23.53
2022-08-02T17:29:16.318Z,23.17
2022-08-02T17:31:43.697Z,23.06
2022-08-02T17:34:13.166Z,22.70
2022-08-02T17:36:43.173Z,22.78
2022-08-02T17:39:09.668Z,22.97
2022-08-02T17:44:37.343Z,22.67
2022-08-02T17:47:06.411Z,22.46
2022-08-02T17:49:37.183Z,22.57
2022-08-02T17:52:49.577Z,22.47
2022-08-02T17:54:57.130Z,22.30
2022-08-02T17:57:23.989Z,22.05
2022-08-02T18:00:11.150Z,22.22
2022-08-02T18:02:38.979Z,22.01
2022-08-02T18:05:05.795Z,22.10
2022-08-02T18:07:50.895Z,22.04
2022-08-02T18:10:22.064Z,21.90
2022-08-02T18:12:50.103Z,21.96
2022-08-02T18:15:17.722Z,22.00
2022-08-02T18:17:46.824Z,21.86
2022-08-02T18:20:13.453Z,22.04
2022-08-02T18:22:43.115Z,21.92
2022-08-02T18:25:36.489Z,21.88
2022-08-02T18:27:58.372Z,21.97
2022-08-02T18:30:28.118Z,21.98
2022-08-02T18:33:58.090Z,22.05
2022-08-02T18:35:42.603Z,21.96
2022-08-02T18:38:11.754Z,22.03
2022-08-02T18:40:38.761Z,21.99
2022-08-02T18:43:07.141Z,21.87
2022-08-02T18:46:04.807Z,21.85
2022-08-02T18:48:20.954Z,22.04
2022-08-02T18:50:48.397Z,21.97
2022-08-02T18:53:16.745Z,21.89
2022-08-02T18:55:59.900Z,21.89
2022-08-02T18:58:30.204Z,21.80
2022-08-02T19:00:57.625Z,21.67
2022-08-02T19:03:25.689Z,21.53
2022-08-02T19:05:54.079Z,21.47
2022-08-02T19:08:26.345Z,21.40
2022-08-02T19:10:56.280Z,21.36
2022-08-02T19:13:23.853Z,21.32
2022-08-02T19:15:50.442Z,21.24
2022-08-02T19:18:16.984Z,21.05
2022-08-02T19:20:48.047Z,21.12
2022-08-02T19:23:15.227Z,21.00
2022-08-02T19:25:50.200Z,20.84
2022-08-02T19:28:26.382Z,20.78
2022-08-02T19:30:54.086Z,20.56
2022-08-02T19:33:54.350Z,20.66
2022-08-02T19:36:07.178Z,20.62
2022-08-02T19:38:33.693Z,20.54
2022-08-02T19:41:01.551Z,20.51
2022-08-02T19:44:27.559Z,20.45
2022-08-02T19:46:15.778Z,20.43
2022-08-02T19:48:42.676Z,20.52
2022-08-02T19:51:12.979Z,20.53
2022-08-02T19:53:47.299Z,20.64
2022-08-02T19:56:20.838Z,20.69
2022-08-02T19:58:51.977Z,20.73
2022-08-02T20:01:23.585Z,20.81
2022-08-02T20:03:54.126Z,20.78
2022-08-02T20:06:29.585Z,20.65
2022-08-02T20:08:58.879Z,20.72
2022-08-02T20:11:25.936Z,20.77
2022-08-02T20:13:53.433Z,20.71
2022-08-02T20:16:27.640Z,20.71
2022-08-02T20:18:56.297Z,20.73
2022-08-02T20:21:35.529Z,20.69
2022-08-02T20:24:05.693Z,20.63
2022-08-02T20:26:32.226Z,20.41
2022-08-02T20:29:02.523Z,20.41
2022-08-02T20:31:29.862Z,20.29
2022-08-02T20:33:56.870Z,20.26
2022-08-02T20:36:24.430Z,20.21
2022-08-02T20:38:50.967Z,20.26
2022-08-02T20:41:21.392Z,20.24
2022-08-02T20:43:48.642Z,20.32
2022-08-02T20:46:15.400Z,20.33
2022-08-02T20:48:41.979Z,20.27
2022-08-02T20:51:09.878Z,20.16
2022-08-02T20:53:54.757Z,20.02
2022-08-02T20:56:25.234Z,19.99
2022-08-02T20:58:52.608Z,20.06
2022-08-02T21:01:21.220Z,20.16
2022-08-02T21:04:06.581Z,20.20
2022-08-02T21:06:33.143Z,20.29
2022-08-02T21:08:59.700Z,20.38
2022-08-02T21:11:33.531Z,20.43
2022-08-02T21:14:07.719Z,20.51
2022-08-02T21:16:36.386Z,20.49
2022-08-02T21:21:49.909Z,20.39
2022-08-02T21:24:17.390Z,20.41
2022-08-02T21:26:48.605Z,20.34
2022-08-02T21:29:15.305Z,20.19
2022-08-02T21:31:42.260Z,20.15
2022-08-02T21:34:26.472Z,20.12
2022-08-02T21:36:54.017Z,20.00
2022-08-02T21:39:20.751Z,19.92
2022-08-02T21:41:47.496Z,20.01
2022-08-02T21:44:18.331Z,19.92
2022-08-02T21:46:49.836Z,19.77
2022-08-02T21:49:20.752Z,19.86
2022-08-02T21:51:49.387Z,19.90
2022-08-02T21:54:20.918Z,19.94
2022-08-02T21:56:49.137Z,19.95
2022-08-02T21:59:17.407Z,20.00
2022-08-02T22:01:52.746Z,19.95
2022-08-02T22:04:21.399Z,19.96
2022-08-02T22:06:49.021Z,19.98
2022-08-02T22:09:17.802Z,19.91
2022-08-02T22:12:04.228Z,19.92
2022-08-02T22:14:33.242Z,19.98
2022-08-02T22:16:59.737Z,19.93
2022-08-02T22:19:26.451Z,19.85
2022-08-02T22:21:56.564Z,19.85
2022-08-02T22:24:30.021Z,19.81
2022-08-02T22:26:57.060Z,19.87
2022-08-02T22:29:23.554Z,19.88
2022-08-02T22:31:50.084Z,19.88
2022-08-02T22:34:36.847Z,19.86
2022-08-02T22:37:07.403Z,19.79
2022-08-02T22:39:34.259Z,19.66
2022-08-02T22:42:05.223Z,19.67
2022-08-02T22:44:33.860Z,19.62
2022-08-02T22:47:03.953Z,19.65
2022-08-02T22:49:38.434Z,19.59
2022-08-02T22:52:21.173Z,19.59
2022-08-02T22:54:47.884Z,19.63
2022-08-02T22:57:14.388Z,19.58
2022-08-02T22:58:48.914Z,22.63
2022-08-02T22:59:41.450Z,19.61
2022-08-02T23:02:08.918Z,19.61
2022-08-02T23:04:36.572Z,19.56
2022-08-02T23:07:03.182Z,19.50
2022-08-02T23:09:29.678Z,19.61
2022-08-02T23:11:56.205Z,19.68
2022-08-02T23:14:22.741Z,19.84
2022-08-02T23:17:08.545Z,19.93
2022-08-02T23:19:52.995Z,19.93
2022-08-02T23:22:29.909Z,19.88
2022-08-02T23:24:59.213Z,19.89
2022-08-02T23:27:25.750Z,19.77
2022-08-02T23:29:52.252Z,19.75
2022-08-02T23:32:18.910Z,19.79
2022-08-02T23:34:50.088Z,19.66
2022-08-02T23:37:16.603Z,19.50
2022-08-02T23:39:43.146Z,19.58
2022-08-02T23:42:09.754Z,19.67
2022-08-02T23:44:36.304Z,19.70
2022-08-02T23:47:02.861Z,19.57
2022-08-02T23:49:29.394Z,19.53
2022-08-02T23:52:01.231Z,19.57
2022-08-02T23:54:28.722Z,19.46
2022-08-02T23:56:55.663Z,19.50
2022-08-02T23:59:22.249Z,19.45
